Terminal Aerodrome Forecast
Issued by NWS

Home | Current Version | Previous Version | Text Only | Print | Product List | Glossary On
Versions: 1 2 3 4 5 6 7 8 9 10 11 12 13
000
FTUS45 KPSR 031720
TAFBLH
TAF
KBLH 031720Z 0318/0418 VRB05KT P6SM SKC
      TEMPO 0318/0321 18008KT
     FM032100 21012G22KT P6SM SKC
     FM040300 22011KT P6SM FEW250
     FM041200 VRB05KT P6SM FEW250=

USA.gov is the U.S. government's official web portal to all federal, state and local government web resources and services.